sensor_id;sensor_type;location;lat;lon;timestamp;P1;durP1;ratioP1;P2;durP2;ratioP2
18166;SDS011;9208;42.688;23.404;2022-07-29T00:01:47;10.07;;;9.17;;
18166;SDS011;9208;42.688;23.404;2022-07-29T00:04:13;9.00;;;8.23;;
18166;SDS011;9208;42.688;23.404;2022-07-29T00:06:39;9.73;;;8.83;;
18166;SDS011;9208;42.688;23.404;2022-07-29T00:09:04;11.03;;;10.03;;
18166;SDS011;9208;42.688;23.404;2022-07-29T00:11:30;11.40;;;10.30;;
18166;SDS011;9208;42.688;23.404;2022-07-29T00:13:55;10.60;;;9.60;;
18166;SDS011;9208;42.688;23.404;2022-07-29T00:16:21;10.50;;;9.50;;
18166;SDS011;9208;42.688;23.404;2022-07-29T00:18:46;10.43;;;9.53;;
18166;SDS011;9208;42.688;23.404;2022-07-29T00:21:12;10.77;;;9.53;;
18166;SDS011;9208;42.688;23.404;2022-07-29T00:23:38;10.40;;;9.37;;
18166;SDS011;9208;42.688;23.404;2022-07-29T00:26:03;10.73;;;9.67;;
18166;SDS011;9208;42.688;23.404;2022-07-29T00:28:29;10.60;;;9.70;;
18166;SDS011;9208;42.688;23.404;2022-07-29T00:30:54;10.63;;;9.60;;
18166;SDS011;9208;42.688;23.404;2022-07-29T00:33:20;10.70;;;9.73;;
18166;SDS011;9208;42.688;23.404;2022-07-29T00:35:47;11.20;;;10.10;;
18166;SDS011;9208;42.688;23.404;2022-07-29T00:38:16;11.40;;;10.23;;
18166;SDS011;9208;42.688;23.404;2022-07-29T00:40:43;11.37;;;10.33;;
18166;SDS011;9208;42.688;23.404;2022-07-29T00:43:09;10.70;;;9.80;;
18166;SDS011;9208;42.688;23.404;2022-07-29T00:45:35;11.00;;;10.00;;
18166;SDS011;9208;42.688;23.404;2022-07-29T00:48:01;11.87;;;10.77;;
18166;SDS011;9208;42.688;23.404;2022-07-29T00:50:28;11.70;;;10.57;;
18166;SDS011;9208;42.688;23.404;2022-07-29T00:52:53;11.43;;;10.43;;
18166;SDS011;9208;42.688;23.404;2022-07-29T00:55:19;11.33;;;10.37;;
18166;SDS011;9208;42.688;23.404;2022-07-29T00:57:45;11.67;;;10.50;;
18166;SDS011;9208;42.688;23.404;2022-07-29T01:00:15;10.73;;;9.83;;
18166;SDS011;9208;42.688;23.404;2022-07-29T01:02:46;11.60;;;10.40;;
18166;SDS011;9208;42.688;23.404;2022-07-29T01:05:19;10.73;;;9.73;;
18166;SDS011;9208;42.688;23.404;2022-07-29T01:07:46;11.50;;;10.40;;
18166;SDS011;9208;42.688;23.404;2022-07-29T01:10:15;12.07;;;10.83;;
18166;SDS011;9208;42.688;23.404;2022-07-29T01:12:42;11.80;;;10.60;;
18166;SDS011;9208;42.688;23.404;2022-07-29T01:15:09;11.13;;;10.20;;
18166;SDS011;9208;42.688;23.404;2022-07-29T01:17:43;11.10;;;10.00;;
18166;SDS011;9208;42.688;23.404;2022-07-29T01:31:13;12.17;;;11.07;;
18166;SDS011;9208;42.688;23.404;2022-07-29T01:33:43;12.67;;;11.60;;
18166;SDS011;9208;42.688;23.404;2022-07-29T01:36:18;12.20;;;11.10;;
18166;SDS011;9208;42.688;23.404;2022-07-29T01:39:27;12.57;;;11.27;;
18166;SDS011;9208;42.688;23.404;2022-07-29T01:41:49;12.80;;;11.60;;
18166;SDS011;9208;42.688;23.404;2022-07-29T01:44:30;12.70;;;11.60;;
18166;SDS011;9208;42.688;23.404;2022-07-29T01:46:58;12.70;;;11.60;;
18166;SDS011;9208;42.688;23.404;2022-07-29T01:49:31;13.30;;;11.93;;
18166;SDS011;9208;42.688;23.404;2022-07-29T01:52:03;14.13;;;11.93;;
18166;SDS011;9208;42.688;23.404;2022-07-29T01:54:35;13.10;;;11.90;;
18166;SDS011;9208;42.688;23.404;2022-07-29T01:57:07;12.37;;;11.23;;
18166;SDS011;9208;42.688;23.404;2022-07-29T01:59:36;13.00;;;11.70;;
18166;SDS011;9208;42.688;23.404;2022-07-29T02:02:03;12.50;;;11.40;;
18166;SDS011;9208;42.688;23.404;2022-07-29T02:04:33;13.10;;;11.90;;
18166;SDS011;9208;42.688;23.404;2022-07-29T02:07:02;13.27;;;12.00;;
18166;SDS011;9208;42.688;23.404;2022-07-29T02:09:31;13.80;;;12.37;;
18166;SDS011;9208;42.688;23.404;2022-07-29T02:11:59;12.03;;;10.93;;
18166;SDS011;9208;42.688;23.404;2022-07-29T02:14:27;13.00;;;11.90;;
18166;SDS011;9208;42.688;23.404;2022-07-29T02:16:55;12.87;;;11.50;;
18166;SDS011;9208;42.688;23.404;2022-07-29T02:19:23;12.47;;;11.37;;
18166;SDS011;9208;42.688;23.404;2022-07-29T02:21:53;12.47;;;11.20;;
18166;SDS011;9208;42.688;23.404;2022-07-29T02:24:22;13.60;;;12.20;;
18166;SDS011;9208;42.688;23.404;2022-07-29T02:26:49;13.53;;;12.27;;
18166;SDS011;9208;42.688;23.404;2022-07-29T02:29:18;12.23;;;11.13;;
18166;SDS011;9208;42.688;23.404;2022-07-29T02:31:47;13.33;;;12.10;;
18166;SDS011;9208;42.688;23.404;2022-07-29T02:34:16;12.90;;;11.70;;
18166;SDS011;9208;42.688;23.404;2022-07-29T02:36:44;11.73;;;10.63;;
18166;SDS011;9208;42.688;23.404;2022-07-29T02:39:10;11.57;;;10.57;;
18166;SDS011;9208;42.688;23.404;2022-07-29T02:44:18;11.43;;;10.33;;
18166;SDS011;9208;42.688;23.404;2022-07-29T02:46:53;12.37;;;11.27;;
18166;SDS011;9208;42.688;23.404;2022-07-29T02:49:37;11.77;;;10.43;;
18166;SDS011;9208;42.688;23.404;2022-07-29T02:52:11;11.43;;;10.30;;
18166;SDS011;9208;42.688;23.404;2022-07-29T02:57:19;11.57;;;10.40;;
18166;SDS011;9208;42.688;23.404;2022-07-29T02:59:47;12.07;;;10.93;;
18166;SDS011;9208;42.688;23.404;2022-07-29T03:02:16;11.60;;;10.60;;
18166;SDS011;9208;42.688;23.404;2022-07-29T03:04:42;12.17;;;11.07;;
18166;SDS011;9208;42.688;23.404;2022-07-29T03:07:10;11.90;;;10.70;;
18166;SDS011;9208;42.688;23.404;2022-07-29T03:09:38;11.47;;;10.50;;
18166;SDS011;9208;42.688;23.404;2022-07-29T03:12:06;11.80;;;10.77;;
18166;SDS011;9208;42.688;23.404;2022-07-29T03:14:36;12.03;;;10.93;;
18166;SDS011;9208;42.688;23.404;2022-07-29T03:17:02;11.73;;;10.63;;
18166;SDS011;9208;42.688;23.404;2022-07-29T03:19:28;11.47;;;10.57;;
18166;SDS011;9208;42.688;23.404;2022-07-29T03:21:55;11.13;;;10.23;;
18166;SDS011;9208;42.688;23.404;2022-07-29T03:24:32;12.63;;;11.33;;
18166;SDS011;9208;42.688;23.404;2022-07-29T03:26:59;11.67;;;10.47;;
18166;SDS011;9208;42.688;23.404;2022-07-29T03:29:25;12.87;;;11.67;;
18166;SDS011;9208;42.688;23.404;2022-07-29T03:31:51;12.27;;;11.13;;
18166;SDS011;9208;42.688;23.404;2022-07-29T03:34:17;12.17;;;11.17;;
18166;SDS011;9208;42.688;23.404;2022-07-29T03:36:42;12.60;;;11.50;;
18166;SDS011;9208;42.688;23.404;2022-07-29T03:39:08;13.17;;;12.00;;
18166;SDS011;9208;42.688;23.404;2022-07-29T03:41:36;12.30;;;10.97;;
18166;SDS011;9208;42.688;23.404;2022-07-29T03:44:03;12.13;;;11.03;;
18166;SDS011;9208;42.688;23.404;2022-07-29T03:46:31;12.70;;;11.50;;
18166;SDS011;9208;42.688;23.404;2022-07-29T03:49:01;12.43;;;11.30;;
18166;SDS011;9208;42.688;23.404;2022-07-29T03:51:29;12.90;;;11.77;;
18166;SDS011;9208;42.688;23.404;2022-07-29T03:53:55;13.20;;;11.93;;
18166;SDS011;9208;42.688;23.404;2022-07-29T03:56:21;12.67;;;11.57;;
18166;SDS011;9208;42.688;23.404;2022-07-29T03:58:49;15.27;;;13.73;;
18166;SDS011;9208;42.688;23.404;2022-07-29T04:01:17;13.60;;;12.40;;
18166;SDS011;9208;42.688;23.404;2022-07-29T04:03:44;12.90;;;11.60;;
18166;SDS011;9208;42.688;23.404;2022-07-29T04:06:10;12.87;;;11.67;;
18166;SDS011;9208;42.688;23.404;2022-07-29T04:08:36;12.13;;;11.00;;
18166;SDS011;9208;42.688;23.404;2022-07-29T04:11:01;12.73;;;11.63;;
18166;SDS011;9208;42.688;23.404;2022-07-29T04:13:28;12.03;;;11.03;;
18166;SDS011;9208;42.688;23.404;2022-07-29T04:15:53;11.93;;;10.73;;
18166;SDS011;9208;42.688;23.404;2022-07-29T04:18:19;12.10;;;11.13;;
18166;SDS011;9208;42.688;23.404;2022-07-29T04:20:44;12.23;;;11.07;;
18166;SDS011;9208;42.688;23.404;2022-07-29T04:23:09;13.63;;;11.13;;
18166;SDS011;9208;42.688;23.404;2022-07-29T04:25:41;12.17;;;10.93;;
18166;SDS011;9208;42.688;23.404;2022-07-29T04:28:08;11.60;;;10.50;;
18166;SDS011;9208;42.688;23.404;2022-07-29T04:30:35;13.80;;;10.73;;
18166;SDS011;9208;42.688;23.404;2022-07-29T04:33:02;11.93;;;10.80;;
18166;SDS011;9208;42.688;23.404;2022-07-29T04:35:30;9.77;;;8.87;;
18166;SDS011;9208;42.688;23.404;2022-07-29T04:37:58;10.97;;;9.83;;
18166;SDS011;9208;42.688;23.404;2022-07-29T04:40:23;10.47;;;9.20;;
18166;SDS011;9208;42.688;23.404;2022-07-29T04:42:49;10.30;;;9.30;;
18166;SDS011;9208;42.688;23.404;2022-07-29T04:45:14;10.83;;;9.83;;
18166;SDS011;9208;42.688;23.404;2022-07-29T04:47:40;10.10;;;9.10;;
18166;SDS011;9208;42.688;23.404;2022-07-29T04:50:06;10.47;;;9.40;;
18166;SDS011;9208;42.688;23.404;2022-07-29T04:52:32;9.30;;;8.40;;
18166;SDS011;9208;42.688;23.404;2022-07-29T04:54:59;8.87;;;7.93;;
18166;SDS011;9208;42.688;23.404;2022-07-29T04:57:25;21.70;;;10.37;;
18166;SDS011;9208;42.688;23.404;2022-07-29T04:59:51;15.97;;;8.63;;
18166;SDS011;9208;42.688;23.404;2022-07-29T05:02:17;8.30;;;7.50;;
18166;SDS011;9208;42.688;23.404;2022-07-29T05:04:42;9.50;;;7.57;;
18166;SDS011;9208;42.688;23.404;2022-07-29T05:07:07;8.17;;;7.47;;
18166;SDS011;9208;42.688;23.404;2022-07-29T05:09:33;8.80;;;8.00;;
18166;SDS011;9208;42.688;23.404;2022-07-29T05:11:58;10.80;;;7.63;;
18166;SDS011;9208;42.688;23.404;2022-07-29T05:14:24;8.47;;;7.67;;
18166;SDS011;9208;42.688;23.404;2022-07-29T05:16:49;8.33;;;7.63;;
18166;SDS011;9208;42.688;23.404;2022-07-29T05:19:16;8.77;;;7.97;;
18166;SDS011;9208;42.688;23.404;2022-07-29T05:21:42;9.47;;;8.57;;
18166;SDS011;9208;42.688;23.404;2022-07-29T05:24:07;9.20;;;8.23;;
18166;SDS011;9208;42.688;23.404;2022-07-29T05:26:33;8.50;;;7.70;;
18166;SDS011;9208;42.688;23.404;2022-07-29T05:28:58;8.37;;;7.57;;
18166;SDS011;9208;42.688;23.404;2022-07-29T05:31:24;8.47;;;7.73;;
18166;SDS011;9208;42.688;23.404;2022-07-29T05:33:49;8.17;;;7.47;;
18166;SDS011;9208;42.688;23.404;2022-07-29T05:36:14;8.97;;;8.07;;
18166;SDS011;9208;42.688;23.404;2022-07-29T05:38:40;8.40;;;7.70;;
18166;SDS011;9208;42.688;23.404;2022-07-29T05:41:05;7.93;;;7.13;;
18166;SDS011;9208;42.688;23.404;2022-07-29T05:43:31;7.67;;;6.97;;
18166;SDS011;9208;42.688;23.404;2022-07-29T05:45:57;7.07;;;6.43;;
18166;SDS011;9208;42.688;23.404;2022-07-29T05:48:23;8.10;;;6.50;;
18166;SDS011;9208;42.688;23.404;2022-07-29T05:50:48;6.57;;;6.03;;
18166;SDS011;9208;42.688;23.404;2022-07-29T05:53:14;7.20;;;6.37;;
18166;SDS011;9208;42.688;23.404;2022-07-29T05:55:40;6.40;;;5.90;;
18166;SDS011;9208;42.688;23.404;2022-07-29T05:58:05;6.67;;;6.07;;
18166;SDS011;9208;42.688;23.404;2022-07-29T06:00:31;6.97;;;6.23;;
18166;SDS011;9208;42.688;23.404;2022-07-29T06:02:56;6.10;;;5.60;;
18166;SDS011;9208;42.688;23.404;2022-07-29T06:05:22;5.70;;;5.30;;
18166;SDS011;9208;42.688;23.404;2022-07-29T06:07:48;11.87;;;6.40;;
18166;SDS011;9208;42.688;23.404;2022-07-29T06:10:13;8.90;;;5.30;;
18166;SDS011;9208;42.688;23.404;2022-07-29T06:12:39;5.67;;;5.17;;
18166;SDS011;9208;42.688;23.404;2022-07-29T06:15:04;6.13;;;5.63;;
18166;SDS011;9208;42.688;23.404;2022-07-29T06:17:31;6.00;;;5.50;;
18166;SDS011;9208;42.688;23.404;2022-07-29T06:19:56;6.03;;;5.47;;
18166;SDS011;9208;42.688;23.404;2022-07-29T06:22:22;6.20;;;5.67;;
18166;SDS011;9208;42.688;23.404;2022-07-29T06:24:47;11.13;;;5.77;;
18166;SDS011;9208;42.688;23.404;2022-07-29T06:27:13;5.90;;;5.40;;
18166;SDS011;9208;42.688;23.404;2022-07-29T06:29:38;5.80;;;5.20;;
18166;SDS011;9208;42.688;23.404;2022-07-29T06:32:04;7.77;;;5.20;;
18166;SDS011;9208;42.688;23.404;2022-07-29T06:34:30;8.60;;;5.50;;
18166;SDS011;9208;42.688;23.404;2022-07-29T06:36:55;6.03;;;5.43;;
18166;SDS011;9208;42.688;23.404;2022-07-29T06:39:21;5.67;;;5.10;;
18166;SDS011;9208;42.688;23.404;2022-07-29T06:41:47;5.23;;;4.83;;
18166;SDS011;9208;42.688;23.404;2022-07-29T06:44:16;8.63;;;4.60;;
18166;SDS011;9208;42.688;23.404;2022-07-29T06:46:42;4.70;;;4.07;;
18166;SDS011;9208;42.688;23.404;2022-07-29T06:49:08;9.83;;;5.03;;
18166;SDS011;9208;42.688;23.404;2022-07-29T06:51:34;8.00;;;4.30;;
18166;SDS011;9208;42.688;23.404;2022-07-29T06:54:00;8.03;;;4.50;;
18166;SDS011;9208;42.688;23.404;2022-07-29T06:56:26;4.50;;;4.03;;
18166;SDS011;9208;42.688;23.404;2022-07-29T06:58:52;8.37;;;4.20;;
18166;SDS011;9208;42.688;23.404;2022-07-29T07:01:17;6.10;;;4.17;;
18166;SDS011;9208;42.688;23.404;2022-07-29T07:03:43;5.37;;;3.87;;
18166;SDS011;9208;42.688;23.404;2022-07-29T07:06:08;4.57;;;3.63;;
18166;SDS011;9208;42.688;23.404;2022-07-29T07:08:34;4.73;;;3.77;;
18166;SDS011;9208;42.688;23.404;2022-07-29T07:10:59;4.17;;;3.77;;
18166;SDS011;9208;42.688;23.404;2022-07-29T07:13:24;6.17;;;3.50;;
18166;SDS011;9208;42.688;23.404;2022-07-29T07:15:50;4.47;;;3.97;;
18166;SDS011;9208;42.688;23.404;2022-07-29T07:18:17;5.10;;;3.47;;
18166;SDS011;9208;42.688;23.404;2022-07-29T07:20:43;4.60;;;3.83;;
18166;SDS011;9208;42.688;23.404;2022-07-29T07:23:09;4.30;;;3.67;;
18166;SDS011;9208;42.688;23.404;2022-07-29T07:25:35;4.77;;;4.27;;
18166;SDS011;9208;42.688;23.404;2022-07-29T07:28:01;8.57;;;4.77;;
18166;SDS011;9208;42.688;23.404;2022-07-29T07:30:26;6.47;;;4.47;;
18166;SDS011;9208;42.688;23.404;2022-07-29T07:32:52;5.33;;;3.77;;
18166;SDS011;9208;42.688;23.404;2022-07-29T07:35:18;8.17;;;5.13;;
18166;SDS011;9208;42.688;23.404;2022-07-29T07:37:44;4.13;;;3.80;;
18166;SDS011;9208;42.688;23.404;2022-07-29T07:40:11;4.10;;;3.80;;
18166;SDS011;9208;42.688;23.404;2022-07-29T07:42:38;5.80;;;4.43;;
18166;SDS011;9208;42.688;23.404;2022-07-29T07:45:04;4.80;;;4.00;;
18166;SDS011;9208;42.688;23.404;2022-07-29T07:47:31;3.90;;;3.60;;
18166;SDS011;9208;42.688;23.404;2022-07-29T07:49:56;8.03;;;4.40;;
18166;SDS011;9208;42.688;23.404;2022-07-29T07:52:22;4.87;;;3.90;;
18166;SDS011;9208;42.688;23.404;2022-07-29T07:54:48;6.43;;;4.60;;
18166;SDS011;9208;42.688;23.404;2022-07-29T07:57:15;4.23;;;3.93;;
18166;SDS011;9208;42.688;23.404;2022-07-29T07:59:41;6.20;;;4.50;;
18166;SDS011;9208;42.688;23.404;2022-07-29T08:02:07;5.33;;;3.90;;
18166;SDS011;9208;42.688;23.404;2022-07-29T08:04:33;4.37;;;4.07;;
18166;SDS011;9208;42.688;23.404;2022-07-29T08:06:59;4.53;;;3.43;;
18166;SDS011;9208;42.688;23.404;2022-07-29T08:09:26;4.40;;;3.60;;
18166;SDS011;9208;42.688;23.404;2022-07-29T08:11:53;3.80;;;3.40;;
18166;SDS011;9208;42.688;23.404;2022-07-29T08:14:19;5.33;;;3.60;;
18166;SDS011;9208;42.688;23.404;2022-07-29T08:16:44;5.07;;;3.47;;
18166;SDS011;9208;42.688;23.404;2022-07-29T08:19:10;3.43;;;3.13;;
18166;SDS011;9208;42.688;23.404;2022-07-29T08:21:36;3.80;;;3.30;;
18166;SDS011;9208;42.688;23.404;2022-07-29T08:24:01;6.23;;;3.27;;
18166;SDS011;9208;42.688;23.404;2022-07-29T08:26:46;4.00;;;3.60;;
18166;SDS011;9208;42.688;23.404;2022-07-29T08:29:12;3.33;;;3.00;;
18166;SDS011;9208;42.688;23.404;2022-07-29T08:31:38;3.63;;;3.33;;
18166;SDS011;9208;42.688;23.404;2022-07-29T08:34:04;3.67;;;3.13;;
18166;SDS011;9208;42.688;23.404;2022-07-29T08:36:30;3.23;;;2.93;;
18166;SDS011;9208;42.688;23.404;2022-07-29T08:38:56;3.60;;;3.30;;
18166;SDS011;9208;42.688;23.404;2022-07-29T08:41:22;3.30;;;3.10;;
18166;SDS011;9208;42.688;23.404;2022-07-29T08:43:48;3.87;;;3.57;;
18166;SDS011;9208;42.688;23.404;2022-07-29T08:46:15;3.77;;;2.97;;
18166;SDS011;9208;42.688;23.404;2022-07-29T08:48:41;3.30;;;3.10;;
18166;SDS011;9208;42.688;23.404;2022-07-29T08:51:08;5.47;;;3.50;;
18166;SDS011;9208;42.688;23.404;2022-07-29T08:53:37;3.43;;;3.13;;
18166;SDS011;9208;42.688;23.404;2022-07-29T08:56:06;7.80;;;3.90;;
18166;SDS011;9208;42.688;23.404;2022-07-29T08:58:32;3.33;;;3.03;;
18166;SDS011;9208;42.688;23.404;2022-07-29T09:01:00;4.07;;;3.10;;
18166;SDS011;9208;42.688;23.404;2022-07-29T09:03:29;4.73;;;3.30;;
18166;SDS011;9208;42.688;23.404;2022-07-29T09:05:56;4.20;;;2.97;;
18166;SDS011;9208;42.688;23.404;2022-07-29T09:08:24;7.33;;;3.10;;
18166;SDS011;9208;42.688;23.404;2022-07-29T09:10:50;6.83;;;3.10;;
18166;SDS011;9208;42.688;23.404;2022-07-29T09:13:16;3.30;;;2.93;;
18166;SDS011;9208;42.688;23.404;2022-07-29T09:15:43;4.87;;;2.90;;
18166;SDS011;9208;42.688;23.404;2022-07-29T09:18:09;4.13;;;3.57;;
18166;SDS011;9208;42.688;23.404;2022-07-29T09:20:34;6.53;;;3.03;;
18166;SDS011;9208;42.688;23.404;2022-07-29T09:23:18;6.07;;;3.37;;
18166;SDS011;9208;42.688;23.404;2022-07-29T09:25:43;3.37;;;3.07;;
18166;SDS011;9208;42.688;23.404;2022-07-29T09:28:10;7.17;;;3.60;;
18166;SDS011;9208;42.688;23.404;2022-07-29T09:30:53;4.97;;;3.50;;
18166;SDS011;9208;42.688;23.404;2022-07-29T09:33:21;6.27;;;3.50;;
18166;SDS011;9208;42.688;23.404;2022-07-29T09:36:00;4.23;;;3.20;;
18166;SDS011;9208;42.688;23.404;2022-07-29T09:38:28;5.47;;;3.77;;
18166;SDS011;9208;42.688;23.404;2022-07-29T09:40:58;4.43;;;3.10;;
18166;SDS011;9208;42.688;23.404;2022-07-29T09:43:25;3.23;;;2.90;;
18166;SDS011;9208;42.688;23.404;2022-07-29T09:45:51;3.73;;;2.80;;
18166;SDS011;9208;42.688;23.404;2022-07-29T09:48:17;3.90;;;2.90;;
18166;SDS011;9208;42.688;23.404;2022-07-29T09:50:48;4.00;;;2.77;;
18166;SDS011;9208;42.688;23.404;2022-07-29T09:56:00;5.17;;;3.30;;
18166;SDS011;9208;42.688;23.404;2022-07-29T09:58:26;3.33;;;2.87;;
18166;SDS011;9208;42.688;23.404;2022-07-29T10:00:52;4.47;;;3.30;;
18166;SDS011;9208;42.688;23.404;2022-07-29T10:03:19;3.53;;;2.97;;
18166;SDS011;9208;42.688;23.404;2022-07-29T10:05:46;6.37;;;3.23;;
18166;SDS011;9208;42.688;23.404;2022-07-29T10:08:29;4.03;;;2.80;;
18166;SDS011;9208;42.688;23.404;2022-07-29T10:11:08;3.23;;;2.83;;
18166;SDS011;9208;42.688;23.404;2022-07-29T10:13:35;3.23;;;2.93;;
18166;SDS011;9208;42.688;23.404;2022-07-29T10:16:01;3.03;;;2.83;;
18166;SDS011;9208;42.688;23.404;2022-07-29T10:18:27;2.90;;;2.50;;
18166;SDS011;9208;42.688;23.404;2022-07-29T10:20:53;3.10;;;2.90;;
18166;SDS011;9208;42.688;23.404;2022-07-29T10:23:19;3.20;;;2.90;;
18166;SDS011;9208;42.688;23.404;2022-07-29T10:25:45;2.93;;;2.73;;
18166;SDS011;9208;42.688;23.404;2022-07-29T10:28:11;3.00;;;2.73;;
18166;SDS011;9208;42.688;23.404;2022-07-29T10:30:36;2.93;;;2.70;;
18166;SDS011;9208;42.688;23.404;2022-07-29T10:33:15;3.10;;;2.90;;
18166;SDS011;9208;42.688;23.404;2022-07-29T10:36:24;2.97;;;2.70;;
18166;SDS011;9208;42.688;23.404;2022-07-29T10:44:40;2.83;;;2.60;;
18166;SDS011;9208;42.688;23.404;2022-07-29T10:47:06;3.07;;;2.87;;
18166;SDS011;9208;42.688;23.404;2022-07-29T10:49:32;2.73;;;2.37;;
18166;SDS011;9208;42.688;23.404;2022-07-29T10:52:07;3.13;;;2.87;;
18166;SDS011;9208;42.688;23.404;2022-07-29T10:57:13;3.07;;;2.87;;
18166;SDS011;9208;42.688;23.404;2022-07-29T10:59:39;3.20;;;3.00;;
18166;SDS011;9208;42.688;23.404;2022-07-29T11:05:14;3.40;;;3.10;;
18166;SDS011;9208;42.688;23.404;2022-07-29T11:10:49;3.67;;;3.33;;
18166;SDS011;9208;42.688;23.404;2022-07-29T11:16:12;3.60;;;3.40;;
18166;SDS011;9208;42.688;23.404;2022-07-29T11:21:35;4.30;;;3.50;;
18166;SDS011;9208;42.688;23.404;2022-07-29T11:24:15;3.70;;;3.40;;
18166;SDS011;9208;42.688;23.404;2022-07-29T11:29:38;4.07;;;3.67;;
18166;SDS011;9208;42.688;23.404;2022-07-29T11:32:12;3.88;;;3.58;;
18166;SDS011;9208;42.688;23.404;2022-07-29T11:34:44;3.83;;;3.55;;
18166;SDS011;9208;42.688;23.404;2022-07-29T11:39:38;3.88;;;3.67;;
18166;SDS011;9208;42.688;23.404;2022-07-29T11:44:54;4.00;;;3.70;;
18166;SDS011;9208;42.688;23.404;2022-07-29T11:47:23;3.50;;;3.30;;
18166;SDS011;9208;42.688;23.404;2022-07-29T11:49:54;5.13;;;3.75;;
18166;SDS011;9208;42.688;23.404;2022-07-29T11:52:22;5.93;;;3.55;;
18166;SDS011;9208;42.688;23.404;2022-07-29T11:54:48;5.43;;;4.20;;
18166;SDS011;9208;42.688;23.404;2022-07-29T11:57:16;4.20;;;3.80;;
18166;SDS011;9208;42.688;23.404;2022-07-29T11:59:43;4.32;;;4.03;;
18166;SDS011;9208;42.688;23.404;2022-07-29T12:02:09;5.47;;;4.00;;
18166;SDS011;9208;42.688;23.404;2022-07-29T12:07:30;4.32;;;4.03;;
18166;SDS011;9208;42.688;23.404;2022-07-29T12:09:56;5.90;;;4.13;;
18166;SDS011;9208;42.688;23.404;2022-07-29T12:12:22;4.15;;;3.85;;
18166;SDS011;9208;42.688;23.404;2022-07-29T12:14:48;4.20;;;3.90;;
18166;SDS011;9208;42.688;23.404;2022-07-29T12:17:33;4.45;;;4.05;;
18166;SDS011;9208;42.688;23.404;2022-07-29T12:20:03;8.05;;;3.83;;
18166;SDS011;9208;42.688;23.404;2022-07-29T12:22:30;5.28;;;4.05;;
18166;SDS011;9208;42.688;23.404;2022-07-29T12:25:01;4.68;;;4.28;;
18166;SDS011;9208;42.688;23.404;2022-07-29T12:27:29;6.10;;;4.40;;
18166;SDS011;9208;42.688;23.404;2022-07-29T12:29:56;4.70;;;4.30;;
18166;SDS011;9208;42.688;23.404;2022-07-29T12:32:32;5.13;;;4.28;;
18166;SDS011;9208;42.688;23.404;2022-07-29T12:35:01;4.32;;;4.03;;
18166;SDS011;9208;42.688;23.404;2022-07-29T12:37:29;3.85;;;3.65;;
18166;SDS011;9208;42.688;23.404;2022-07-29T12:39:54;4.25;;;3.95;;
18166;SDS011;9208;42.688;23.404;2022-07-29T12:42:20;4.93;;;4.50;;
18166;SDS011;9208;42.688;23.404;2022-07-29T12:44:46;4.55;;;4.15;;
18166;SDS011;9208;42.688;23.404;2022-07-29T12:47:13;4.30;;;4.00;;
18166;SDS011;9208;42.688;23.404;2022-07-29T12:49:39;4.90;;;4.50;;
18166;SDS011;9208;42.688;23.404;2022-07-29T12:54:53;4.47;;;4.18;;
18166;SDS011;9208;42.688;23.404;2022-07-29T12:57:19;4.82;;;4.22;;
18166;SDS011;9208;42.688;23.404;2022-07-29T12:59:45;5.00;;;4.15;;
18166;SDS011;9208;42.688;23.404;2022-07-29T13:02:24;4.65;;;4.28;;
18166;SDS011;9208;42.688;23.404;2022-07-29T13:04:56;4.80;;;4.47;;
18166;SDS011;9208;42.688;23.404;2022-07-29T13:07:24;5.10;;;4.70;;
18166;SDS011;9208;42.688;23.404;2022-07-29T13:09:54;4.88;;;4.40;;
18166;SDS011;9208;42.688;23.404;2022-07-29T13:15:41;4.45;;;4.15;;
18166;SDS011;9208;42.688;23.404;2022-07-29T13:18:33;4.30;;;4.00;;
18166;SDS011;9208;42.688;23.404;2022-07-29T13:21:12;4.70;;;4.30;;
18166;SDS011;9208;42.688;23.404;2022-07-29T13:23:40;4.82;;;4.43;;
18166;SDS011;9208;42.688;23.404;2022-07-29T13:26:07;4.60;;;4.18;;
18166;SDS011;9208;42.688;23.404;2022-07-29T13:28:34;4.72;;;4.43;;
18166;SDS011;9208;42.688;23.404;2022-07-29T13:31:00;5.15;;;4.75;;
18166;SDS011;9208;42.688;23.404;2022-07-29T13:33:26;6.10;;;4.68;;
18166;SDS011;9208;42.688;23.404;2022-07-29T13:35:52;8.98;;;4.68;;
18166;SDS011;9208;42.688;23.404;2022-07-29T13:38:17;6.82;;;5.32;;
18166;SDS011;9208;42.688;23.404;2022-07-29T13:40:43;14.70;;;5.53;;
18166;SDS011;9208;42.688;23.404;2022-07-29T13:43:09;5.63;;;4.50;;
18166;SDS011;9208;42.688;23.404;2022-07-29T13:45:35;5.25;;;4.45;;
18166;SDS011;9208;42.688;23.404;2022-07-29T13:48:00;7.22;;;4.82;;
18166;SDS011;9208;42.688;23.404;2022-07-29T13:50:26;5.43;;;4.45;;
18166;SDS011;9208;42.688;23.404;2022-07-29T13:52:51;6.55;;;4.70;;
18166;SDS011;9208;42.688;23.404;2022-07-29T13:55:17;5.78;;;5.20;;
18166;SDS011;9208;42.688;23.404;2022-07-29T13:57:43;4.70;;;4.38;;
18166;SDS011;9208;42.688;23.404;2022-07-29T14:00:08;5.93;;;5.43;;
18166;SDS011;9208;42.688;23.404;2022-07-29T14:02:35;6.38;;;5.88;;
18166;SDS011;9208;42.688;23.404;2022-07-29T14:05:00;5.90;;;5.40;;
18166;SDS011;9208;42.688;23.404;2022-07-29T14:07:26;6.47;;;5.13;;
18166;SDS011;9208;42.688;23.404;2022-07-29T14:09:51;5.50;;;5.00;;
18166;SDS011;9208;42.688;23.404;2022-07-29T14:12:17;5.80;;;5.22;;
18166;SDS011;9208;42.688;23.404;2022-07-29T14:14:42;4.82;;;4.53;;
18166;SDS011;9208;42.688;23.404;2022-07-29T14:17:08;4.72;;;4.43;;
18166;SDS011;9208;42.688;23.404;2022-07-29T14:19:34;9.23;;;5.30;;
18166;SDS011;9208;42.688;23.404;2022-07-29T14:22:01;4.93;;;4.53;;
18166;SDS011;9208;42.688;23.404;2022-07-29T14:24:30;6.50;;;4.65;;
18166;SDS011;9208;42.688;23.404;2022-07-29T14:26:56;5.25;;;4.75;;
18166;SDS011;9208;42.688;23.404;2022-07-29T14:29:22;5.13;;;4.53;;
18166;SDS011;9208;42.688;23.404;2022-07-29T14:31:48;4.95;;;4.53;;
18166;SDS011;9208;42.688;23.404;2022-07-29T14:34:13;4.30;;;3.90;;
18166;SDS011;9208;42.688;23.404;2022-07-29T14:36:40;5.35;;;4.93;;
18166;SDS011;9208;42.688;23.404;2022-07-29T14:39:06;5.40;;;4.43;;
18166;SDS011;9208;42.688;23.404;2022-07-29T14:41:32;5.47;;;4.78;;
18166;SDS011;9208;42.688;23.404;2022-07-29T14:43:57;4.68;;;4.28;;
18166;SDS011;9208;42.688;23.404;2022-07-29T14:46:25;4.75;;;4.35;;
18166;SDS011;9208;42.688;23.404;2022-07-29T14:48:51;5.60;;;4.38;;
18166;SDS011;9208;42.688;23.404;2022-07-29T14:51:17;4.85;;;4.55;;
18166;SDS011;9208;42.688;23.404;2022-07-29T14:53:42;6.65;;;5.35;;
18166;SDS011;9208;42.688;23.404;2022-07-29T14:56:08;6.93;;;4.82;;
18166;SDS011;9208;42.688;23.404;2022-07-29T14:58:36;8.15;;;5.32;;
18166;SDS011;9208;42.688;23.404;2022-07-29T15:01:01;8.18;;;5.18;;
18166;SDS011;9208;42.688;23.404;2022-07-29T15:03:27;23.67;;;7.50;;
18166;SDS011;9208;42.688;23.404;2022-07-29T15:05:53;16.73;;;6.45;;
18166;SDS011;9208;42.688;23.404;2022-07-29T15:08:19;7.20;;;4.88;;
18166;SDS011;9208;42.688;23.404;2022-07-29T15:10:47;8.43;;;5.25;;
18166;SDS011;9208;42.688;23.404;2022-07-29T15:13:13;7.68;;;5.05;;
18166;SDS011;9208;42.688;23.404;2022-07-29T15:15:38;7.07;;;5.05;;
18166;SDS011;9208;42.688;23.404;2022-07-29T15:18:04;5.57;;;5.03;;
18166;SDS011;9208;42.688;23.404;2022-07-29T15:20:30;4.82;;;4.43;;
18166;SDS011;9208;42.688;23.404;2022-07-29T15:22:55;4.95;;;4.55;;
18166;SDS011;9208;42.688;23.404;2022-07-29T15:25:22;5.28;;;4.78;;
18166;SDS011;9208;42.688;23.404;2022-07-29T15:27:48;4.78;;;4.38;;
18166;SDS011;9208;42.688;23.404;2022-07-29T15:30:13;6.35;;;4.65;;
18166;SDS011;9208;42.688;23.404;2022-07-29T15:32:42;4.70;;;4.40;;
18166;SDS011;9208;42.688;23.404;2022-07-29T15:35:10;4.95;;;4.55;;
18166;SDS011;9208;42.688;23.404;2022-07-29T15:37:37;6.43;;;5.03;;
18166;SDS011;9208;42.688;23.404;2022-07-29T15:40:04;7.38;;;5.13;;